Time;durP1;ratioP1;P1;durP2;ratioP2;P2;SDS_P1;SDS_P2;PMS_P1;PMS_P2;Temp;Humidity;BMP_temperature;BMP_pressure;BME280_temperature;BME280_humidity;BME280_pressure;Samples;Min_cycle;Max_cycle;Signal;HPM_P1;HPM_P2
2023/03/25 00:01:24;;;;;;;0.60;0.60;;;;;;;11.54;74.45;95177.31;5111801;28;20448;-56
2023/03/25 00:03:52;;;;;;;0.70;0.33;;;;;;;11.26;73.46;95123.13;5111970;28;20977;-56
2023/03/25 00:06:21;;;;;;;0.57;0.57;;;;;;;11.60;74.03;95168.25;5110738;28;20444;-56
2023/03/25 00:08:50;;;;;;;0.37;0.30;;;;;;;11.51;75.00;95170.69;5111968;28;20576;-56
2023/03/25 00:11:19;;;;;;;0.50;0.30;;;;;;;11.40;75.78;95164.69;5111687;28;20435;-56
2023/03/25 00:13:48;;;;;;;0.50;0.47;;;;;;;11.04;75.42;95104.22;5111633;28;20527;-56
2023/03/25 00:16:17;;;;;;;0.40;0.40;;;;;;;11.00;77.40;95135.81;5111196;28;20546;-56
2023/03/25 00:18:46;;;;;;;0.30;0.20;;;;;;;11.03;75.70;95126.53;5111356;28;20527;-56
2023/03/25 00:21:15;;;;;;;0.60;0.60;;;;;;;11.27;76.33;95165.31;5111656;28;20435;-55
2023/03/25 00:23:43;;;;;;;0.50;0.40;;;;;;;11.31;75.83;95165.53;5110977;28;20471;-55
2023/03/25 00:26:13;;;;;;;0.60;0.60;;;;;;;11.34;75.84;95163.13;5111734;28;20936;-56
2023/03/25 00:28:41;;;;;;;0.40;0.40;;;;;;;11.29;75.90;95165.84;5111572;28;20439;-56
2023/03/25 00:31:13;;;;;;;1.37;0.60;;;;;;;11.12;76.02;95159.31;5111383;28;20532;-55
2023/03/25 00:33:41;;;;;;;0.87;0.87;;;;;;;10.83;77.80;95165.34;5110955;28;20527;-55
2023/03/25 00:36:13;;;;;;;0.60;0.60;;;;;;;10.95;76.88;95169.53;5111539;28;20450;-55
2023/03/25 00:38:42;;;;;;;0.40;0.20;;;;;;;11.08;76.00;95160.97;5111432;28;20505;-55
2023/03/25 00:41:21;;;;;;;0.40;0.30;;;;;;;11.16;74.97;95158.50;5111509;28;20523;-55
2023/03/25 00:43:52;;;;;;;0.40;0.40;;;;;;;11.08;75.63;95148.47;5112899;28;20474;-55
2023/03/25 00:46:21;;;;;;;0.40;0.40;;;;;;;11.15;75.30;95158.78;5115309;28;20951;-55
2023/03/25 00:48:51;;;;;;;1.60;0.70;;;;;;;11.16;75.11;95147.88;5102445;28;20435;-55
2023/03/25 00:51:20;;;;;;;0.50;0.50;;;;;;;11.20;75.48;95151.59;5115044;28;20835;-55
2023/03/25 00:53:52;;;;;;;0.97;0.70;;;;;;;11.12;75.94;95144.22;5115417;28;20809;-55
2023/03/25 00:56:23;;;;;;;4.47;0.50;;;;;;;11.00;76.10;95143.78;5114687;28;20435;-56
2023/03/25 00:58:51;;;;;;;2.00;1.20;;;;;;;10.81;76.49;95134.88;5115314;28;20538;-56
2023/03/25 01:01:22;;;;;;;0.50;0.40;;;;;;;10.67;77.86;95139.19;5114634;28;20467;-56
2023/03/25 01:03:56;;;;;;;5.10;0.40;;;;;;;10.74;77.60;95137.84;5115072;28;20447;-56
2023/03/25 01:06:28;;;;;;;0.50;0.40;;;;;;;10.80;77.33;95130.66;5114353;28;20450;-56
2023/03/25 01:08:58;;;;;;;0.47;0.40;;;;;;;10.39;79.81;95129.28;5115012;28;20449;-56
2023/03/25 01:11:33;;;;;;;1.37;1.30;;;;;;;10.18;83.30;95132.00;5115531;28;20515;-56
2023/03/25 01:14:03;;;;;;;14.60;1.63;;;;;;;9.22;88.22;95043.31;5115109;28;20839;-56
2023/03/25 01:16:31;;;;;;;0.53;0.53;;;;;;;10.04;87.25;95120.34;5114423;28;20440;-55
2023/03/25 01:19:00;;;;;;;0.50;0.33;;;;;;;10.34;84.23;95119.50;5114284;28;20496;-55
2023/03/25 01:21:28;;;;;;;2.87;1.17;;;;;;;10.43;83.34;95119.69;5114085;28;20542;-55
2023/03/25 01:23:56;;;;;;;0.30;0.30;;;;;;;10.43;83.11;95117.06;5113765;28;20499;-55
2023/03/25 01:26:25;;;;;;;0.63;0.63;;;;;;;10.55;82.52;95106.94;5114156;28;20534;-55
2023/03/25 01:28:54;;;;;;;1.73;1.63;;;;;;;10.50;82.03;95104.31;5113773;28;20443;-55
2023/03/25 01:31:24;;;;;;;0.30;0.20;;;;;;;10.11;84.83;95077.72;5113928;28;20440;-55
2023/03/25 01:33:53;;;;;;;0.57;0.57;;;;;;;10.47;82.56;95102.22;5113498;28;20444;-55
2023/03/25 01:36:23;;;;;;;0.50;0.40;;;;;;;10.55;80.53;95097.09;5113932;28;20536;-55
2023/03/25 01:38:51;;;;;;;0.90;0.90;;;;;;;10.61;80.59;95084.63;5114397;28;20431;-55
2023/03/25 01:41:20;;;;;;;0.90;0.30;;;;;;;10.53;80.23;95069.31;5114083;28;20440;-55
2023/03/25 01:44:08;;;;;;;0.30;0.20;;;;;;;10.71;79.24;95088.00;5113926;28;20978;-55
2023/03/25 01:46:43;;;;;;;0.30;0.30;;;;;;;10.71;79.05;95068.66;5114085;28;20526;-55
2023/03/25 01:49:17;;;;;;;0.50;0.40;;;;;;;10.47;80.74;95081.00;5113686;28;20449;-55
2023/03/25 01:51:46;;;;;;;0.63;0.47;;;;;;;9.40;89.46;95024.22;5113850;28;20522;-55
2023/03/25 01:54:16;;;;;;;0.50;0.40;;;;;;;8.86;100.00;95085.63;5114186;28;20442;-55
2023/03/25 01:56:48;;;;;;;2.70;1.20;;;;;;;8.61;100.00;95088.22;5114173;28;20432;-55
2023/03/25 01:59:23;;;;;;;1.03;0.93;;;;;;;8.63;100.00;95085.31;5114082;28;20502;-55
2023/03/25 02:01:53;;;;;;;1.00;0.60;;;;;;;8.39;100.00;95053.34;5114079;28;20443;-55
2023/03/25 02:04:30;;;;;;;0.90;0.60;;;;;;;9.20;100.00;95069.22;5113784;28;20468;-55
2023/03/25 02:06:58;;;;;;;0.60;0.47;;;;;;;9.14;100.00;95072.91;5113961;28;20488;-55
2023/03/25 02:09:27;;;;;;;6.40;2.20;;;;;;;9.42;100.00;95077.66;5113484;28;20439;-55
2023/03/25 02:11:56;;;;;;;1.00;0.50;;;;;;;9.29;100.00;95088.78;5113805;28;20467;-55
2023/03/25 02:14:28;;;;;;;0.87;0.87;;;;;;;9.27;100.00;95080.31;5113764;28;20432;-56
2023/03/25 02:17:08;;;;;;;0.40;0.30;;;;;;;9.32;100.00;95082.94;5113360;28;20481;-56
2023/03/25 02:20:21;;;;;;;0.40;0.40;;;;;;;9.45;100.00;95088.50;5113815;28;20510;-55
2023/03/25 02:23:20;;;;;;;0.40;0.40;;;;;;;9.52;100.00;95081.06;5113633;28;20530;-55
2023/03/25 02:26:26;;;;;;;0.63;0.63;;;;;;;9.54;100.00;95078.94;5113521;28;21316;-55
2023/03/25 02:29:00;;;;;;;0.50;0.50;;;;;;;9.68;100.00;95079.19;5113398;28;20439;-55
2023/03/25 02:31:51;;;;;;;0.40;0.30;;;;;;;9.71;100.00;95072.56;5112823;28;20913;-56
2023/03/25 02:34:47;;;;;;;0.73;0.70;;;;;;;9.68;100.00;95081.03;5113915;28;20443;-55
2023/03/25 02:37:59;;;;;;;1.07;0.60;;;;;;;9.63;100.00;95079.19;5112856;28;20436;-55
2023/03/25 02:40:36;;;;;;;0.50;0.30;;;;;;;9.63;99.14;95084.50;5112986;28;20439;-55
2023/03/25 02:43:11;;;;;;;1.07;0.97;;;;;;;9.17;100.00;95075.03;5112346;28;20525;-55
2023/03/25 02:45:46;;;;;;;0.73;0.73;;;;;;;9.28;100.00;95077.41;5112430;28;20479;-55
2023/03/25 02:48:21;;;;;;;0.60;0.60;;;;;;;9.19;100.00;95079.00;5111808;28;20444;-55
2023/03/25 02:50:53;;;;;;;0.77;0.73;;;;;;;9.46;98.88;95062.84;5112381;28;20434;-55
2023/03/25 02:53:27;;;;;;;0.57;0.57;;;;;;;9.60;96.41;95063.84;5112427;28;20492;-55
2023/03/25 02:56:01;;;;;;;0.87;0.87;;;;;;;9.62;96.13;95056.44;5113238;28;20464;-55
2023/03/25 02:58:31;;;;;;;0.53;0.53;;;;;;;9.66;95.97;95060.16;5113021;28;20442;-55
2023/03/25 03:01:00;;;;;;;0.87;0.87;;;;;;;9.55;96.92;95058.59;5112956;28;20880;-55
2023/03/25 03:03:29;;;;;;;1.00;1.00;;;;;;;9.38;97.39;95045.66;5112758;28;20440;-55
2023/03/25 03:06:00;;;;;;;0.60;0.60;;;;;;;9.31;98.23;95050.41;5111868;28;21068;-55
2023/03/25 03:08:47;;;;;;;0.40;0.30;;;;;;;9.24;97.94;95047.25;5112200;28;20522;-55
2023/03/25 03:11:20;;;;;;;11.53;0.60;;;;;;;9.17;98.25;95048.59;5112650;28;20808;-55
2023/03/25 03:14:28;;;;;;;0.40;0.27;;;;;;;9.25;97.35;95051.50;5112731;28;20511;-56
2023/03/25 03:17:02;;;;;;;0.50;0.30;;;;;;;9.04;97.70;95047.28;5103108;28;21033;-55
2023/03/25 03:19:38;;;;;;;0.97;0.50;;;;;;;9.02;99.81;95049.41;5112182;28;20536;-56
2023/03/25 03:22:20;;;;;;;0.40;0.40;;;;;;;9.22;95.87;95036.16;5112788;28;20870;-55
2023/03/25 03:24:56;;;;;;;0.60;0.60;;;;;;;9.10;93.72;94982.78;5112398;28;20530;-55
2023/03/25 03:27:32;;;;;;;0.50;0.50;;;;;;;9.53;93.09;95037.69;5112032;28;20954;-56
2023/03/25 03:30:07;;;;;;;1.37;1.10;;;;;;;9.52;92.08;95044.03;5112281;28;20479;-56
2023/03/25 03:32:42;;;;;;;4.23;0.77;;;;;;;9.50;92.50;95045.38;5099759;28;20499;-56
2023/03/25 03:35:16;;;;;;;4.10;0.53;;;;;;;9.34;93.32;95034.03;5112328;28;20447;-55
2023/03/25 03:37:50;;;;;;;0.40;0.30;;;;;;;9.42;93.38;95032.69;5112372;28;21073;-56
2023/03/25 03:40:23;;;;;;;1.10;1.00;;;;;;;8.86;99.41;95040.69;5111890;28;20522;-56
2023/03/25 03:42:55;;;;;;;0.57;0.57;;;;;;;8.58;100.00;95040.41;5112094;28;20457;-55
2023/03/25 03:45:29;;;;;;;0.60;0.30;;;;;;;8.80;100.00;95048.91;5111379;28;20482;-55
2023/03/25 03:48:01;;;;;;;0.93;0.93;;;;;;;8.58;100.00;95045.69;5112022;28;20467;-56
2023/03/25 03:50:35;;;;;;;0.50;0.43;;;;;;;8.22;100.00;95039.56;5112027;28;20432;-56
2023/03/25 03:53:09;;;;;;;0.57;0.37;;;;;;;8.06;100.00;95038.72;5111777;28;20479;-56
2023/03/25 03:55:44;;;;;;;0.43;0.40;;;;;;;8.06;100.00;95040.56;5112184;28;20816;-56
2023/03/25 03:58:21;;;;;;;2.73;0.50;;;;;;;8.40;100.00;95040.94;5111884;28;20438;-56
2023/03/25 04:00:56;;;;;;;0.40;0.33;;;;;;;8.34;100.00;95036.69;5111759;28;20436;-56
2023/03/25 04:03:33;;;;;;;2.10;0.60;;;;;;;8.30;100.00;95018.72;5099714;28;20442;-56
2023/03/25 04:06:08;;;;;;;1.60;1.50;;;;;;;8.52;100.00;95036.19;5111066;28;20486;-55
2023/03/25 04:08:41;;;;;;;0.93;0.90;;;;;;;8.76;100.00;95037.25;5111731;28;20525;-55
2023/03/25 04:11:19;;;;;;;0.50;0.50;;;;;;;8.45;100.00;94954.56;5111784;28;20615;-56
2023/03/25 04:13:52;;;;;;;0.90;0.90;;;;;;;9.00;100.00;95054.19;5111067;28;20857;-56
2023/03/25 04:16:20;;;;;;;0.40;0.40;;;;;;;8.97;95.81;95003.69;5099115;28;20805;-55
2023/03/25 04:18:52;;;;;;;0.40;0.33;;;;;;;9.48;91.86;95056.22;5111638;28;20448;-56
2023/03/25 04:21:21;;;;;;;0.40;0.37;;;;;;;9.57;89.39;95036.09;5111601;28;20462;-56
2023/03/25 04:23:50;;;;;;;0.77;0.77;;;;;;;9.11;92.95;95061.03;5111348;28;20478;-55
2023/03/25 04:26:20;;;;;;;0.30;0.30;;;;;;;9.31;91.61;95060.22;5111426;28;20482;-55
2023/03/25 04:28:48;;;;;;;0.43;0.30;;;;;;;9.14;89.38;94999.69;5110404;28;20501;-56
2023/03/25 04:31:17;;;;;;;0.53;0.40;;;;;;;9.59;87.79;95047.19;5111110;28;20470;-56
2023/03/25 04:33:47;;;;;;;1.90;0.53;;;;;;;9.78;86.32;95055.34;5110534;28;20954;-56
2023/03/25 04:36:15;;;;;;;1.40;1.30;;;;;;;9.85;86.23;95063.78;5110443;28;20536;-56
2023/03/25 04:38:45;;;;;;;0.40;0.30;;;;;;;9.83;85.59;95060.63;5110948;28;20443;-56
2023/03/25 04:41:13;;;;;;;0.30;0.20;;;;;;;9.43;85.93;95005.19;5111498;28;20521;-56
2023/03/25 04:43:44;;;;;;;0.47;0.37;;;;;;;9.85;85.62;95061.13;5111047;28;20461;-55
2023/03/25 04:46:14;;;;;;;0.40;0.30;;;;;;;9.61;87.75;95068.09;5111582;28;20471;-55
2023/03/25 04:48:43;;;;;;;0.90;0.57;;;;;;;9.77;86.93;95052.94;5110944;28;20439;-55
2023/03/25 04:51:13;;;;;;;0.80;0.77;;;;;;;9.84;85.73;95054.25;5110906;28;20537;-55
2023/03/25 04:53:42;;;;;;;0.47;0.33;;;;;;;9.80;86.21;95044.47;5098186;28;20437;-55
2023/03/25 04:56:15;;;;;;;0.57;0.57;;;;;;;9.24;89.19;94991.72;5110141;28;20448;-55
2023/03/25 04:58:46;;;;;;;0.47;0.33;;;;;;;9.68;89.55;95044.78;5111180;28;20529;-55
2023/03/25 05:01:29;;;;;;;0.47;0.33;;;;;;;9.67;90.37;95048.50;5110799;28;20443;-55
2023/03/25 05:04:04;;;;;;;0.97;0.77;;;;;;;9.29;88.73;94972.41;5111413;28;20923;-55
2023/03/25 05:06:33;;;;;;;0.57;0.57;;;;;;;9.55;91.23;95048.00;5097375;28;21000;-55
2023/03/25 05:09:04;;;;;;;0.70;0.60;;;;;;;9.63;90.54;95047.44;5110959;28;20533;-55
2023/03/25 05:11:35;;;;;;;2.97;0.90;;;;;;;9.64;90.42;95048.25;5111096;28;20435;-55
2023/03/25 05:14:05;;;;;;;1.03;1.03;;;;;;;9.15;94.18;95045.44;5111228;28;20476;-55
2023/03/25 05:16:34;;;;;;;0.60;0.60;;;;;;;9.63;91.90;95050.09;5110945;28;20510;-55
2023/03/25 05:19:05;;;;;;;0.70;0.57;;;;;;;9.63;91.19;95052.75;5111339;28;20443;-55
2023/03/25 05:21:35;;;;;;;7.27;2.30;;;;;;;9.70;92.07;95058.53;5110889;28;20435;-55
2023/03/25 05:24:04;;;;;;;4.20;1.10;;;;;;;8.94;100.00;95071.88;5110756;28;21025;-56
2023/03/25 05:26:34;;;;;;;2.50;1.13;;;;;;;8.91;100.00;95063.69;5111423;28;20475;-55
2023/03/25 05:29:02;;;;;;;0.60;0.50;;;;;;;8.89;100.00;95063.94;5106710;28;20443;-55
2023/03/25 05:31:32;;;;;;;1.63;0.73;;;;;;;8.84;100.00;95011.09;5106964;28;20495;-55
2023/03/25 05:34:00;;;;;;;2.60;1.23;;;;;;;9.50;100.00;95069.97;5114393;28;20966;-55
2023/03/25 05:36:29;;;;;;;0.80;0.80;;;;;;;9.59;98.60;95071.00;5114921;28;20846;-55
2023/03/25 05:38:58;;;;;;;0.40;0.30;;;;;;;9.87;94.37;95053.72;5114252;28;21053;-56
2023/03/25 05:41:31;;;;;;;0.93;0.93;;;;;;;9.85;93.51;95047.09;5114204;28;20466;-55
2023/03/25 05:44:04;;;;;;;0.50;0.50;;;;;;;9.49;95.04;95014.66;5114201;28;20503;-55
2023/03/25 05:46:34;;;;;;;0.50;0.50;;;;;;;10.10;93.93;95052.28;5113851;28;20475;-54
2023/03/25 05:49:02;;;;;;;0.60;0.60;;;;;;;10.43;91.42;95048.97;5114233;28;20443;-55
2023/03/25 05:51:36;;;;;;;7.50;0.93;;;;;;;10.04;94.90;95048.88;5113733;28;20865;-55
2023/03/25 05:54:12;;;;;;;2.13;2.03;;;;;;;9.11;98.77;95004.75;5114038;28;20450;-55
2023/03/25 05:56:41;;;;;;;3.60;2.37;;;;;;;9.24;100.00;95049.13;5113920;28;20500;-55
2023/03/25 05:59:10;;;;;;;1.70;1.60;;;;;;;9.26;100.00;95039.09;5114020;28;20967;-55
2023/03/25 06:01:44;;;;;;;1.00;1.00;;;;;;;9.61;100.00;95049.56;5114057;28;20442;-55
2023/03/25 06:04:15;;;;;;;1.03;0.97;;;;;;;9.82;98.46;95045.78;5113998;28;20431;-54
2023/03/25 06:06:44;;;;;;;2.73;0.80;;;;;;;9.77;99.01;95045.81;5113409;28;20467;-55
2023/03/25 06:09:12;;;;;;;0.70;0.70;;;;;;;10.13;97.30;95051.78;5113299;28;20493;-55
2023/03/25 06:11:41;;;;;;;0.77;0.77;;;;;;;10.37;91.70;95030.72;5113320;28;20503;-55
2023/03/25 06:14:09;;;;;;;3.13;0.73;;;;;;;10.76;89.55;95034.97;5113303;28;21402;-54
2023/03/25 06:16:38;;;;;;;8.90;1.03;;;;;;;11.42;84.87;95043.13;5113711;28;20530;-55
2023/03/25 06:19:08;;;;;;;1.17;0.40;;;;;;;11.45;83.50;95039.13;5109979;28;20902;-54
2023/03/25 06:21:37;;;;;;;2.20;2.10;;;;;;;11.48;82.45;95035.94;5104514;28;20524;-55
2023/03/25 06:24:06;;;;;;;2.83;1.00;;;;;;;11.61;80.38;94998.09;5113095;28;20551;-56
2023/03/25 06:26:36;;;;;;;2.20;2.10;;;;;;;11.78;78.58;95038.28;5113567;28;20526;-56
2023/03/25 06:29:04;;;;;;;16.73;1.20;;;;;;;12.42;76.44;95036.94;5113429;28;20460;-54
2023/03/25 06:31:33;;;;;;;0.90;0.60;;;;;;;11.32;75.50;94910.59;5113082;28;20926;-55
2023/03/25 06:34:02;;;;;;;0.83;0.83;;;;;;;12.41;74.44;95038.81;5113771;28;20436;-54
2023/03/25 06:36:33;;;;;;;0.50;0.40;;;;;;;12.87;71.64;95040.78;5113154;28;20756;-54
2023/03/25 06:39:04;;;;;;;1.47;1.40;;;;;;;13.42;69.20;95037.25;5100061;28;20446;-54
2023/03/25 06:41:34;;;;;;;0.50;0.47;;;;;;;14.18;67.81;95038.44;5111376;28;20448;-54
2023/03/25 06:44:06;;;;;;;0.60;0.50;;;;;;;14.80;64.71;95029.63;5112783;28;20761;-54
2023/03/25 06:46:34;;;;;;;2.53;2.33;;;;;;;14.35;64.55;95035.97;5112322;28;20439;-55
2023/03/25 06:49:03;;;;;;;0.70;0.70;;;;;;;14.36;64.55;95029.56;5112911;28;20552;-55
2023/03/25 06:51:33;;;;;;;4.63;0.60;;;;;;;15.53;63.11;95020.41;5112498;28;20436;-56
2023/03/25 06:54:01;;;;;;;0.63;0.60;;;;;;;15.06;60.77;94963.91;5113279;28;20462;-55
2023/03/25 06:56:29;;;;;;;0.73;0.73;;;;;;;16.34;59.80;95011.69;5112931;28;20527;-57
2023/03/25 06:58:58;;;;;;;0.70;0.70;;;;;;;16.36;58.27;95006.06;5112558;28;20435;-57
2023/03/25 07:01:26;;;;;;;0.67;0.57;;;;;;;16.32;57.91;95010.44;5112800;28;20820;-57
2023/03/25 07:03:54;;;;;;;1.47;1.43;;;;;;;15.50;58.66;95010.34;5112818;28;20443;-58
2023/03/25 07:06:24;;;;;;;3.53;1.00;;;;;;;15.89;58.05;95010.34;5112005;28;20436;-55
2023/03/25 07:08:54;;;;;;;0.80;0.70;;;;;;;16.65;56.23;95016.16;5112036;28;20471;-58
2023/03/25 07:11:26;;;;;;;0.70;0.60;;;;;;;17.25;55.32;95003.56;5111486;28;20432;-59
2023/03/25 07:13:55;;;;;;;1.47;1.47;;;;;;;17.37;53.90;95009.03;5112632;28;20482;-60
2023/03/25 07:16:24;;;;;;;0.50;0.50;;;;;;;17.45;54.20;95007.44;5099115;28;20497;-60
2023/03/25 07:18:53;;;;;;;0.40;0.30;;;;;;;18.60;51.98;94997.13;5112174;28;20443;-61
2023/03/25 07:21:22;;;;;;;0.87;0.70;;;;;;;19.87;49.17;94990.88;5111961;28;20451;-60
2023/03/25 07:23:51;;;;;;;1.63;0.60;;;;;;;19.74;47.39;94956.22;5111768;28;21050;-60
2023/03/25 07:26:21;;;;;;;1.30;1.30;;;;;;;20.08;47.76;94994.25;5112063;28;20443;-60
2023/03/25 07:28:49;;;;;;;0.83;0.83;;;;;;;21.04;46.15;94978.25;5111908;28;20485;-60
2023/03/25 07:31:17;;;;;;;0.60;0.40;;;;;;;20.25;45.96;94936.75;5111850;28;20535;-60
2023/03/25 07:33:46;;;;;;;1.33;1.23;;;;;;;21.62;44.24;94991.03;5111664;28;20444;-59
2023/03/25 07:36:14;;;;;;;1.00;0.90;;;;;;;20.41;45.43;94987.97;5112231;28;20901;-59
2023/03/25 07:38:43;;;;;;;1.47;1.37;;;;;;;21.17;45.38;94990.59;5112163;28;20440;-59
2023/03/25 07:41:13;;;;;;;1.03;1.03;;;;;;;21.34;45.48;94988.38;5112235;28;20538;-59
2023/03/25 07:43:44;;;;;;;1.20;1.00;;;;;;;22.13;42.71;94986.53;5111959;28;20793;-59
2023/03/25 07:46:13;;;;;;;0.90;0.73;;;;;;;21.18;43.54;94973.28;5111395;28;20958;-58
2023/03/25 07:48:41;;;;;;;1.83;0.90;;;;;;;20.97;43.93;94962.69;5111773;28;20575;-58
2023/03/25 07:51:10;;;;;;;3.03;0.80;;;;;;;21.09;44.87;94976.16;5111695;28;20443;-58
2023/03/25 07:53:41;;;;;;;1.97;0.80;;;;;;;21.23;43.32;94971.13;5098447;28;20530;-58
2023/03/25 07:56:10;;;;;;;1.67;0.97;;;;;;;21.06;43.93;94965.25;5111527;28;20527;-57
2023/03/25 07:58:39;;;;;;;1.97;0.93;;;;;;;21.43;43.90;94964.72;5111565;28;20465;-57
2023/03/25 08:01:09;;;;;;;0.80;0.60;;;;;;;21.62;43.71;94961.38;5111667;28;20479;-57
2023/03/25 08:03:38;;;;;;;1.17;1.07;;;;;;;22.33;41.71;94954.97;5111942;28;20523;-57
2023/03/25 08:06:08;;;;;;;12.80;1.47;;;;;;;22.63;41.50;94948.75;5111629;28;20436;-57
2023/03/25 08:08:36;;;;;;;0.50;0.50;;;;;;;22.43;42.08;94946.34;5111797;28;20463;-56
2023/03/25 08:11:05;;;;;;;0.70;0.60;;;;;;;22.81;41.60;94945.63;5111002;28;20898;-57
2023/03/25 08:13:33;;;;;;;1.37;0.60;;;;;;;22.98;41.24;94945.97;5111610;28;20527;-56
2023/03/25 08:16:01;;;;;;;0.40;0.40;;;;;;;23.45;38.84;94934.94;5111403;28;20428;-57
2023/03/25 08:18:31;;;;;;;0.60;0.60;;;;;;;23.82;38.81;94929.75;5112029;28;20443;-56
2023/03/25 08:20:59;;;;;;;0.60;0.60;;;;;;;24.07;39.32;94911.16;5111480;28;20486;-56
2023/03/25 08:23:28;;;;;;;1.30;0.80;;;;;;;24.27;39.05;94923.50;5111081;28;20504;-56
2023/03/25 08:25:56;;;;;;;0.83;0.83;;;;;;;24.87;38.06;94914.25;5111817;28;20447;-56
2023/03/25 08:28:25;;;;;;;0.40;0.40;;;;;;;25.50;37.00;94913.44;5111029;28;20459;-56
2023/03/25 08:30:54;;;;;;;3.23;0.87;;;;;;;24.18;36.98;94912.16;5097835;28;20435;-56
2023/03/25 08:33:25;;;;;;;1.40;1.30;;;;;;;24.91;37.26;94898.03;5111379;28;20463;-56
2023/03/25 08:35:58;;;;;;;1.43;1.33;;;;;;;24.08;37.01;94901.94;5111234;28;20439;-56
2023/03/25 08:38:30;;;;;;;0.53;0.53;;;;;;;23.95;38.52;94902.13;5111568;28;20439;-56
2023/03/25 08:41:02;;;;;;;0.57;0.57;;;;;;;24.76;36.48;94907.13;5111445;28;20875;-56
2023/03/25 08:43:30;;;;;;;3.00;0.70;;;;;;;23.96;37.82;94900.19;5111413;28;20459;-55
2023/03/25 08:45:58;;;;;;;0.60;0.43;;;;;;;25.53;36.56;94893.66;5111560;28;20440;-56
2023/03/25 08:48:27;;;;;;;0.77;0.77;;;;;;;25.79;37.01;94885.38;5110993;28;20536;-56
2023/03/25 08:50:55;;;;;;;0.90;0.50;;;;;;;25.98;36.48;94877.00;5110383;28;20522;-55
2023/03/25 08:53:26;;;;;;;1.97;1.30;;;;;;;25.04;35.69;94881.16;5111201;28;20864;-55
2023/03/25 08:55:55;;;;;;;2.00;1.90;;;;;;;24.43;37.60;94876.16;5111352;28;20927;-56
2023/03/25 08:58:24;;;;;;;1.00;0.90;;;;;;;23.98;38.50;94868.88;5111467;28;20431;-55
2023/03/25 09:00:54;;;;;;;0.80;0.60;;;;;;;25.37;37.15;94882.25;5110859;28;20450;-56
2023/03/25 09:03:23;;;;;;;0.80;0.60;;;;;;;26.14;34.97;94797.94;5111148;28;20439;-56
2023/03/25 09:05:52;;;;;;;2.43;0.63;;;;;;;26.33;34.36;94843.84;5115709;28;20431;-56
2023/03/25 09:08:21;;;;;;;0.97;0.50;;;;;;;26.69;34.33;94845.56;5115408;28;20550;-55
2023/03/25 09:10:51;;;;;;;1.97;0.67;;;;;;;27.31;33.02;94845.34;5115062;28;20458;-56
2023/03/25 09:13:19;;;;;;;0.60;0.57;;;;;;;28.77;32.46;94837.44;5114793;28;20584;-55
2023/03/25 09:15:48;;;;;;;0.83;0.83;;;;;;;28.22;32.54;94839.16;5114687;28;20478;-56
2023/03/25 09:18:17;;;;;;;0.40;0.40;;;;;;;27.78;32.97;94830.66;5114884;28;20439;-55
2023/03/25 09:20:47;;;;;;;0.40;0.30;;;;;;;28.02;32.65;94821.69;5114894;28;20861;-56
2023/03/25 09:23:15;;;;;;;2.50;0.80;;;;;;;27.10;32.84;94816.94;5114397;28;20479;-55
2023/03/25 09:25:45;;;;;;;0.90;0.90;;;;;;;28.07;31.93;94818.56;5114435;28;20440;-59
2023/03/25 09:28:15;;;;;;;2.40;2.30;;;;;;;28.08;31.53;94812.69;5114891;28;20443;-55
2023/03/25 09:30:43;;;;;;;0.80;0.60;;;;;;;27.93;32.80;94792.06;5114138;28;20439;-56
2023/03/25 09:33:13;;;;;;;0.70;0.60;;;;;;;28.53;30.97;94804.78;5115069;28;20435;-55
2023/03/25 09:35:41;;;;;;;0.47;0.37;;;;;;;28.60;30.86;94805.53;5114598;28;20432;-55
2023/03/25 09:38:09;;;;;;;3.53;1.20;;;;;;;27.93;31.35;94794.81;5114406;28;20470;-55
2023/03/25 09:40:41;;;;;;;0.90;0.90;;;;;;;29.39;31.42;94791.09;5114786;28;20432;-55
2023/03/25 09:43:33;;;;;;;0.97;0.83;;;;;;;28.59;30.72;94779.44;5114712;28;20449;-55
2023/03/25 09:46:03;;;;;;;0.90;0.90;;;;;;;27.85;30.70;94785.13;5114667;28;20492;-55
2023/03/25 09:48:37;;;;;;;1.97;1.90;;;;;;;28.32;29.60;94781.91;5114444;28;20467;-55
2023/03/25 09:51:09;;;;;;;1.30;1.00;;;;;;;28.20;30.18;94767.94;5114639;28;20500;-55
2023/03/25 09:53:43;;;;;;;0.60;0.57;;;;;;;28.39;29.45;94762.00;5101624;28;20436;-56
2023/03/25 09:56:16;;;;;;;0.80;0.57;;;;;;;29.59;29.94;94761.28;5114339;28;20531;-54
2023/03/25 09:58:48;;;;;;;0.50;0.50;;;;;;;29.73;29.84;94746.72;5114428;28;20531;-56
2023/03/25 10:01:26;;;;;;;0.60;0.50;;;;;;;27.76;31.18;94734.91;5113906;28;20440;-56
2023/03/25 10:04:23;;;;;;;0.50;0.50;;;;;;;27.77;30.12;94742.72;5114321;28;20431;-56
2023/03/25 10:07:01;;;;;;;0.90;0.57;;;;;;;26.64;30.34;94745.34;5102763;28;20440;-56
2023/03/25 10:09:41;;;;;;;0.57;0.57;;;;;;;26.89;30.39;94674.72;5113458;28;20471;-56
2023/03/25 10:12:26;;;;;;;1.63;0.57;;;;;;;27.18;30.69;94733.41;5113697;28;20998;-56
2023/03/25 10:15:13;;;;;;;2.83;0.30;;;;;;;27.30;31.26;94713.94;5113813;28;20523;-56
2023/03/25 10:17:56;;;;;;;1.10;1.10;;;;;;;27.24;32.17;94726.41;5113661;28;20488;-56
2023/03/25 10:20:36;;;;;;;0.97;0.40;;;;;;;26.79;31.89;94727.16;5113774;28;20440;-55
2023/03/25 10:23:10;;;;;;;0.60;0.60;;;;;;;27.26;30.48;94718.63;5112821;28;20467;-56
2023/03/25 10:25:41;;;;;;;0.40;0.40;;;;;;;28.23;29.14;94718.09;5113803;28;20956;-55
2023/03/25 10:28:17;;;;;;;0.93;0.93;;;;;;;28.98;28.60;94704.81;5113432;28;20443;-56
2023/03/25 10:30:51;;;;;;;12.43;0.40;;;;;;;29.60;28.18;94647.34;5113639;28;20528;-56
2023/03/25 10:33:28;;;;;;;0.60;0.60;;;;;;;28.33;27.75;94671.69;5113490;28;20483;-56
2023/03/25 10:36:00;;;;;;;0.50;0.40;;;;;;;28.12;28.11;94693.59;5101640;28;20436;-58
2023/03/25 10:38:30;;;;;;;0.53;0.50;;;;;;;29.07;28.11;94694.22;5113414;28;20784;-59
2023/03/25 10:41:11;;;;;;;0.70;0.70;;;;;;;29.37;26.64;94667.09;5113645;28;20444;-59
2023/03/25 10:43:41;;;;;;;0.47;0.33;;;;;;;29.98;26.67;94627.78;5113211;28;20990;-58
2023/03/25 10:46:18;;;;;;;0.50;0.47;;;;;;;29.97;26.53;94675.44;5113288;28;20511;-58
2023/03/25 10:48:48;;;;;;;0.40;0.30;;;;;;;30.43;26.84;94668.66;5100143;28;20477;-58
2023/03/25 10:51:19;;;;;;;0.67;0.67;;;;;;;30.07;27.68;94665.56;5113062;28;20475;-59
2023/03/25 10:53:51;;;;;;;0.73;0.57;;;;;;;30.15;28.34;94665.09;5112438;28;20435;-59
2023/03/25 10:56:24;;;;;;;0.73;0.73;;;;;;;29.02;27.56;94659.19;5113230;28;20439;-59
2023/03/25 10:58:54;;;;;;;0.50;0.50;;;;;;;28.88;27.68;94658.13;5112938;28;20451;-59
2023/03/25 11:01:38;;;;;;;0.50;0.40;;;;;;;28.65;28.35;94648.94;5109605;28;20524;-58
2023/03/25 11:04:11;;;;;;;1.90;0.57;;;;;;;29.29;27.89;94649.22;5105631;28;20848;-55
2023/03/25 11:06:41;;;;;;;0.40;0.30;;;;;;;29.56;28.93;94634.50;5099663;28;20447;-56
2023/03/25 11:09:18;;;;;;;0.70;0.70;;;;;;;28.74;28.22;94636.38;5112166;28;20471;-56
2023/03/25 11:11:47;;;;;;;0.80;0.80;;;;;;;29.36;28.04;94616.38;5112652;28;20526;-56
2023/03/25 11:14:16;;;;;;;0.40;0.40;;;;;;;29.42;29.08;94629.19;5112571;28;20988;-56
2023/03/25 11:16:48;;;;;;;0.60;0.60;;;;;;;29.41;27.87;94605.03;5112186;28;20439;-56
2023/03/25 11:19:21;;;;;;;4.23;0.80;;;;;;;29.44;27.97;94617.88;5112224;28;20470;-56
2023/03/25 11:21:55;;;;;;;0.80;0.80;;;;;;;29.14;27.63;94576.81;5111603;28;20440;-56
2023/03/25 11:24:28;;;;;;;0.97;0.63;;;;;;;29.88;28.40;94554.94;5112024;28;20525;-56
2023/03/25 11:26:56;;;;;;;0.60;0.40;;;;;;;30.26;28.64;94593.84;5111304;28;20518;-56
2023/03/25 11:29:27;;;;;;;1.50;0.40;;;;;;;30.05;27.11;94558.63;5111808;28;20439;-56
2023/03/25 11:32:05;;;;;;;0.70;0.60;;;;;;;30.41;28.24;94581.53;5111879;28;20964;-56
2023/03/25 11:34:40;;;;;;;1.30;1.20;;;;;;;30.31;28.03;94579.72;5111665;28;20431;-57
2023/03/25 11:37:17;;;;;;;0.40;0.30;;;;;;;30.24;27.87;94568.09;5110807;28;20446;-55
2023/03/25 11:39:53;;;;;;;0.60;0.60;;;;;;;29.95;29.13;94560.31;5111886;28;20474;-55
2023/03/25 11:42:33;;;;;;;0.97;0.97;;;;;;;29.71;29.90;94553.19;5112614;28;20426;-56
2023/03/25 11:45:02;;;;;;;0.40;0.40;;;;;;;28.55;29.03;94503.31;5112135;28;20459;-56
2023/03/25 11:47:34;;;;;;;0.67;0.60;;;;;;;29.42;29.26;94543.78;5111837;28;20489;-55
2023/03/25 11:50:03;;;;;;;6.80;1.20;;;;;;;28.51;28.42;94548.91;5111841;28;20566;-55
2023/03/25 11:52:39;;;;;;;0.83;0.80;;;;;;;28.96;29.29;94533.34;5111953;28;20451;-55
2023/03/25 11:55:17;;;;;;;0.43;0.40;;;;;;;30.02;28.33;94529.38;5112252;28;20500;-55
2023/03/25 11:57:48;;;;;;;0.53;0.50;;;;;;;29.54;26.06;94496.84;5112061;28;20439;-56